sensor_id;sensor_type;location;lat;lon;timestamp;P1;durP1;ratioP1;P2;durP2;ratioP2
17494;SDS011;8864;51.970;4.614;2023-12-20T00:02:13;3.88;;;1.17;;
17494;SDS011;8864;51.970;4.614;2023-12-20T00:04:40;3.22;;;0.90;;
17494;SDS011;8864;51.970;4.614;2023-12-20T00:07:07;2.67;;;1.17;;
17494;SDS011;8864;51.970;4.614;2023-12-20T00:09:33;4.68;;;1.17;;
17494;SDS011;8864;51.970;4.614;2023-12-20T00:12:03;3.03;;;1.10;;
17494;SDS011;8864;51.970;4.614;2023-12-20T00:14:30;4.65;;;1.17;;
17494;SDS011;8864;51.970;4.614;2023-12-20T00:16:57;1.63;;;0.90;;
17494;SDS011;8864;51.970;4.614;2023-12-20T00:19:24;2.63;;;1.00;;
17494;SDS011;8864;51.970;4.614;2023-12-20T00:21:51;4.35;;;1.30;;
17494;SDS011;8864;51.970;4.614;2023-12-20T00:24:19;5.22;;;1.60;;
17494;SDS011;8864;51.970;4.614;2023-12-20T00:26:46;4.60;;;1.00;;
17494;SDS011;8864;51.970;4.614;2023-12-20T00:29:14;1.88;;;1.00;;
17494;SDS011;8864;51.970;4.614;2023-12-20T00:31:42;3.30;;;0.90;;
17494;SDS011;8864;51.970;4.614;2023-12-20T00:34:09;3.97;;;1.10;;
17494;SDS011;8864;51.970;4.614;2023-12-20T00:36:36;3.88;;;1.15;;
17494;SDS011;8864;51.970;4.614;2023-12-20T00:39:04;2.45;;;1.00;;
17494;SDS011;8864;51.970;4.614;2023-12-20T00:41:32;3.63;;;1.02;;
17494;SDS011;8864;51.970;4.614;2023-12-20T00:43:59;3.78;;;0.98;;
17494;SDS011;8864;51.970;4.614;2023-12-20T00:46:27;6.18;;;1.35;;
17494;SDS011;8864;51.970;4.614;2023-12-20T00:48:54;5.25;;;1.23;;
17494;SDS011;8864;51.970;4.614;2023-12-20T00:51:21;3.40;;;1.25;;
17494;SDS011;8864;51.970;4.614;2023-12-20T00:53:49;2.55;;;0.90;;
17494;SDS011;8864;51.970;4.614;2023-12-20T00:56:19;4.05;;;1.15;;
17494;SDS011;8864;51.970;4.614;2023-12-20T00:58:47;4.35;;;1.00;;
17494;SDS011;8864;51.970;4.614;2023-12-20T01:01:15;6.10;;;1.17;;
17494;SDS011;8864;51.970;4.614;2023-12-20T01:03:43;5.07;;;0.90;;
17494;SDS011;8864;51.970;4.614;2023-12-20T01:06:10;3.60;;;1.13;;
17494;SDS011;8864;51.970;4.614;2023-12-20T01:08:37;7.63;;;1.10;;
17494;SDS011;8864;51.970;4.614;2023-12-20T01:11:04;5.20;;;1.08;;
17494;SDS011;8864;51.970;4.614;2023-12-20T01:13:32;5.68;;;1.20;;
17494;SDS011;8864;51.970;4.614;2023-12-20T01:15:59;3.67;;;1.20;;
17494;SDS011;8864;51.970;4.614;2023-12-20T01:18:26;3.30;;;0.82;;
17494;SDS011;8864;51.970;4.614;2023-12-20T01:20:54;3.50;;;1.30;;
17494;SDS011;8864;51.970;4.614;2023-12-20T01:23:21;3.53;;;0.80;;
17494;SDS011;8864;51.970;4.614;2023-12-20T01:25:48;4.72;;;1.33;;
17494;SDS011;8864;51.970;4.614;2023-12-20T01:28:15;6.28;;;1.30;;
17494;SDS011;8864;51.970;4.614;2023-12-20T01:30:42;4.25;;;0.82;;
17494;SDS011;8864;51.970;4.614;2023-12-20T01:33:09;2.97;;;0.80;;
17494;SDS011;8864;51.970;4.614;2023-12-20T01:35:36;4.38;;;1.10;;
17494;SDS011;8864;51.970;4.614;2023-12-20T01:38:04;4.00;;;1.25;;
17494;SDS011;8864;51.970;4.614;2023-12-20T01:40:32;4.05;;;1.00;;
17494;SDS011;8864;51.970;4.614;2023-12-20T01:42:59;3.40;;;1.17;;
17494;SDS011;8864;51.970;4.614;2023-12-20T01:45:26;7.35;;;1.60;;
17494;SDS011;8864;51.970;4.614;2023-12-20T01:47:53;3.10;;;0.80;;
17494;SDS011;8864;51.970;4.614;2023-12-20T01:50:21;4.53;;;1.20;;
17494;SDS011;8864;51.970;4.614;2023-12-20T01:52:48;5.63;;;1.30;;
17494;SDS011;8864;51.970;4.614;2023-12-20T01:55:18;3.30;;;1.10;;
17494;SDS011;8864;51.970;4.614;2023-12-20T01:57:47;6.20;;;1.23;;
17494;SDS011;8864;51.970;4.614;2023-12-20T02:00:14;7.50;;;1.63;;
17494;SDS011;8864;51.970;4.614;2023-12-20T02:02:41;5.72;;;1.60;;
17494;SDS011;8864;51.970;4.614;2023-12-20T02:05:11;3.80;;;1.13;;
17494;SDS011;8864;51.970;4.614;2023-12-20T02:07:38;4.85;;;1.13;;
17494;SDS011;8864;51.970;4.614;2023-12-20T02:10:05;4.28;;;1.00;;
17494;SDS011;8864;51.970;4.614;2023-12-20T02:12:34;4.88;;;1.38;;
17494;SDS011;8864;51.970;4.614;2023-12-20T02:15:02;4.18;;;1.25;;
17494;SDS011;8864;51.970;4.614;2023-12-20T02:17:29;5.15;;;1.15;;
17494;SDS011;8864;51.970;4.614;2023-12-20T02:19:57;3.83;;;1.02;;
17494;SDS011;8864;51.970;4.614;2023-12-20T02:22:25;3.55;;;1.30;;
17494;SDS011;8864;51.970;4.614;2023-12-20T02:24:52;5.65;;;1.25;;
17494;SDS011;8864;51.970;4.614;2023-12-20T02:27:19;6.18;;;1.25;;
17494;SDS011;8864;51.970;4.614;2023-12-20T02:29:47;5.93;;;1.20;;
17494;SDS011;8864;51.970;4.614;2023-12-20T02:32:14;4.78;;;1.42;;
17494;SDS011;8864;51.970;4.614;2023-12-20T02:34:42;4.45;;;1.10;;
17494;SDS011;8864;51.970;4.614;2023-12-20T02:37:09;8.07;;;1.42;;
17494;SDS011;8864;51.970;4.614;2023-12-20T02:39:37;3.88;;;0.90;;
17494;SDS011;8864;51.970;4.614;2023-12-20T02:42:04;6.15;;;1.20;;
17494;SDS011;8864;51.970;4.614;2023-12-20T02:44:31;5.80;;;1.40;;
17494;SDS011;8864;51.970;4.614;2023-12-20T02:46:58;4.78;;;1.30;;
17494;SDS011;8864;51.970;4.614;2023-12-20T02:49:25;4.80;;;1.05;;
17494;SDS011;8864;51.970;4.614;2023-12-20T02:51:53;4.35;;;1.00;;
17494;SDS011;8864;51.970;4.614;2023-12-20T02:54:19;4.80;;;1.63;;
17494;SDS011;8864;51.970;4.614;2023-12-20T02:56:48;3.45;;;1.25;;
17494;SDS011;8864;51.970;4.614;2023-12-20T02:59:16;4.40;;;1.27;;
17494;SDS011;8864;51.970;4.614;2023-12-20T03:01:44;5.00;;;1.40;;
17494;SDS011;8864;51.970;4.614;2023-12-20T03:04:11;4.07;;;0.90;;
17494;SDS011;8864;51.970;4.614;2023-12-20T03:06:40;3.05;;;1.20;;
17494;SDS011;8864;51.970;4.614;2023-12-20T03:09:06;4.80;;;1.15;;
17494;SDS011;8864;51.970;4.614;2023-12-20T03:11:33;7.82;;;1.00;;
17494;SDS011;8864;51.970;4.614;2023-12-20T03:14:01;5.75;;;1.27;;
17494;SDS011;8864;51.970;4.614;2023-12-20T03:16:28;6.05;;;1.35;;
17494;SDS011;8864;51.970;4.614;2023-12-20T03:18:56;5.35;;;1.23;;
17494;SDS011;8864;51.970;4.614;2023-12-20T03:21:23;6.88;;;1.27;;
17494;SDS011;8864;51.970;4.614;2023-12-20T03:23:50;6.72;;;1.45;;
17494;SDS011;8864;51.970;4.614;2023-12-20T03:26:17;2.97;;;0.95;;
17494;SDS011;8864;51.970;4.614;2023-12-20T03:28:45;4.35;;;1.38;;
17494;SDS011;8864;51.970;4.614;2023-12-20T03:31:15;5.15;;;1.50;;
17494;SDS011;8864;51.970;4.614;2023-12-20T03:33:41;4.90;;;1.02;;
17494;SDS011;8864;51.970;4.614;2023-12-20T03:36:08;2.20;;;1.08;;
17494;SDS011;8864;51.970;4.614;2023-12-20T03:38:35;4.10;;;1.30;;
17494;SDS011;8864;51.970;4.614;2023-12-20T03:41:02;5.18;;;1.30;;
17494;SDS011;8864;51.970;4.614;2023-12-20T03:43:29;5.10;;;1.23;;
17494;SDS011;8864;51.970;4.614;2023-12-20T03:45:56;2.55;;;1.00;;
17494;SDS011;8864;51.970;4.614;2023-12-20T03:48:25;3.40;;;1.10;;
17494;SDS011;8864;51.970;4.614;2023-12-20T03:50:52;6.07;;;1.13;;
17494;SDS011;8864;51.970;4.614;2023-12-20T03:53:19;6.30;;;1.40;;
17494;SDS011;8864;51.970;4.614;2023-12-20T03:55:45;6.85;;;1.25;;
17494;SDS011;8864;51.970;4.614;2023-12-20T03:58:12;8.57;;;1.20;;
17494;SDS011;8864;51.970;4.614;2023-12-20T04:00:39;3.55;;;1.17;;
17494;SDS011;8864;51.970;4.614;2023-12-20T04:03:06;5.60;;;1.75;;
17494;SDS011;8864;51.970;4.614;2023-12-20T04:05:34;3.53;;;1.15;;
17494;SDS011;8864;51.970;4.614;2023-12-20T04:08:01;5.03;;;1.27;;
17494;SDS011;8864;51.970;4.614;2023-12-20T04:10:29;4.22;;;1.33;;
17494;SDS011;8864;51.970;4.614;2023-12-20T04:12:56;3.75;;;1.10;;
17494;SDS011;8864;51.970;4.614;2023-12-20T04:15:23;5.38;;;1.35;;
17494;SDS011;8864;51.970;4.614;2023-12-20T04:17:50;4.35;;;1.30;;
17494;SDS011;8864;51.970;4.614;2023-12-20T04:20:17;5.00;;;1.35;;
17494;SDS011;8864;51.970;4.614;2023-12-20T04:22:45;5.72;;;1.10;;
17494;SDS011;8864;51.970;4.614;2023-12-20T04:25:12;4.30;;;1.27;;
17494;SDS011;8864;51.970;4.614;2023-12-20T04:27:39;3.63;;;1.20;;
17494;SDS011;8864;51.970;4.614;2023-12-20T04:30:06;5.93;;;1.30;;
17494;SDS011;8864;51.970;4.614;2023-12-20T04:32:34;6.20;;;1.45;;
17494;SDS011;8864;51.970;4.614;2023-12-20T04:35:01;5.70;;;1.30;;
17494;SDS011;8864;51.970;4.614;2023-12-20T04:37:28;5.28;;;1.25;;
17494;SDS011;8864;51.970;4.614;2023-12-20T04:39:56;4.35;;;1.58;;
17494;SDS011;8864;51.970;4.614;2023-12-20T04:42:23;5.47;;;1.40;;
17494;SDS011;8864;51.970;4.614;2023-12-20T04:44:51;3.47;;;1.20;;
17494;SDS011;8864;51.970;4.614;2023-12-20T04:47:18;4.75;;;1.08;;
17494;SDS011;8864;51.970;4.614;2023-12-20T04:49:45;5.88;;;1.33;;
17494;SDS011;8864;51.970;4.614;2023-12-20T04:52:11;5.57;;;1.38;;
17494;SDS011;8864;51.970;4.614;2023-12-20T04:54:39;6.18;;;1.50;;
17494;SDS011;8864;51.970;4.614;2023-12-20T04:57:08;7.53;;;1.30;;
17494;SDS011;8864;51.970;4.614;2023-12-20T04:59:34;6.90;;;1.17;;
17494;SDS011;8864;51.970;4.614;2023-12-20T05:02:02;3.53;;;1.10;;
17494;SDS011;8864;51.970;4.614;2023-12-20T05:04:29;5.78;;;1.40;;
17494;SDS011;8864;51.970;4.614;2023-12-20T05:06:56;4.13;;;1.20;;
17494;SDS011;8864;51.970;4.614;2023-12-20T05:09:22;4.97;;;1.30;;
17494;SDS011;8864;51.970;4.614;2023-12-20T05:11:49;5.57;;;1.40;;
17494;SDS011;8864;51.970;4.614;2023-12-20T05:14:17;5.88;;;1.15;;
17494;SDS011;8864;51.970;4.614;2023-12-20T05:16:44;5.93;;;1.15;;
17494;SDS011;8864;51.970;4.614;2023-12-20T05:19:11;6.07;;;1.40;;
17494;SDS011;8864;51.970;4.614;2023-12-20T05:21:39;3.60;;;1.25;;
17494;SDS011;8864;51.970;4.614;2023-12-20T05:24:06;6.55;;;1.60;;
17494;SDS011;8864;51.970;4.614;2023-12-20T05:26:33;5.97;;;1.40;;
17494;SDS011;8864;51.970;4.614;2023-12-20T05:28:59;5.18;;;1.50;;
17494;SDS011;8864;51.970;4.614;2023-12-20T05:31:28;4.75;;;1.30;;
17494;SDS011;8864;51.970;4.614;2023-12-20T05:33:55;5.05;;;1.42;;
17494;SDS011;8864;51.970;4.614;2023-12-20T05:36:22;5.88;;;1.52;;
17494;SDS011;8864;51.970;4.614;2023-12-20T05:38:49;6.03;;;1.23;;
17494;SDS011;8864;51.970;4.614;2023-12-20T05:41:16;7.90;;;1.25;;
17494;SDS011;8864;51.970;4.614;2023-12-20T05:43:43;5.22;;;1.40;;
17494;SDS011;8864;51.970;4.614;2023-12-20T05:46:10;6.90;;;1.33;;
17494;SDS011;8864;51.970;4.614;2023-12-20T05:48:38;3.92;;;1.30;;
17494;SDS011;8864;51.970;4.614;2023-12-20T05:51:05;6.25;;;1.67;;
17494;SDS011;8864;51.970;4.614;2023-12-20T05:53:33;6.20;;;1.20;;
17494;SDS011;8864;51.970;4.614;2023-12-20T05:56:01;4.25;;;1.27;;
17494;SDS011;8864;51.970;4.614;2023-12-20T05:58:28;7.38;;;1.23;;
17494;SDS011;8864;51.970;4.614;2023-12-20T06:00:55;6.72;;;1.40;;
17494;SDS011;8864;51.970;4.614;2023-12-20T06:03:22;8.38;;;1.73;;
17494;SDS011;8864;51.970;4.614;2023-12-20T06:05:50;8.25;;;1.33;;
17494;SDS011;8864;51.970;4.614;2023-12-20T06:08:17;6.68;;;1.17;;
17494;SDS011;8864;51.970;4.614;2023-12-20T06:10:44;5.70;;;1.48;;
17494;SDS011;8864;51.970;4.614;2023-12-20T06:13:11;5.25;;;1.60;;
17494;SDS011;8864;51.970;4.614;2023-12-20T06:15:39;5.93;;;1.13;;
17494;SDS011;8864;51.970;4.614;2023-12-20T06:18:06;6.55;;;1.45;;
17494;SDS011;8864;51.970;4.614;2023-12-20T06:20:33;6.57;;;1.73;;
17494;SDS011;8864;51.970;4.614;2023-12-20T06:23:01;5.95;;;1.05;;
17494;SDS011;8864;51.970;4.614;2023-12-20T06:25:28;6.00;;;1.70;;
17494;SDS011;8864;51.970;4.614;2023-12-20T06:27:55;5.35;;;1.52;;
17494;SDS011;8864;51.970;4.614;2023-12-20T06:30:22;2.92;;;0.80;;
17494;SDS011;8864;51.970;4.614;2023-12-20T06:32:50;7.80;;;1.58;;
17494;SDS011;8864;51.970;4.614;2023-12-20T06:35:18;3.10;;;1.17;;
17494;SDS011;8864;51.970;4.614;2023-12-20T06:37:44;5.72;;;1.50;;
17494;SDS011;8864;51.970;4.614;2023-12-20T06:40:13;3.80;;;1.50;;
17494;SDS011;8864;51.970;4.614;2023-12-20T06:42:41;5.85;;;1.40;;
17494;SDS011;8864;51.970;4.614;2023-12-20T06:45:08;4.90;;;1.30;;
17494;SDS011;8864;51.970;4.614;2023-12-20T06:47:37;6.00;;;1.35;;
17494;SDS011;8864;51.970;4.614;2023-12-20T06:50:04;5.65;;;1.30;;
17494;SDS011;8864;51.970;4.614;2023-12-20T06:52:33;3.00;;;1.10;;
17494;SDS011;8864;51.970;4.614;2023-12-20T06:55:01;6.78;;;1.58;;
17494;SDS011;8864;51.970;4.614;2023-12-20T06:57:29;9.30;;;1.58;;
17494;SDS011;8864;51.970;4.614;2023-12-20T06:59:57;5.22;;;1.50;;
17494;SDS011;8864;51.970;4.614;2023-12-20T07:02:24;5.00;;;1.33;;
17494;SDS011;8864;51.970;4.614;2023-12-20T07:04:54;6.15;;;1.35;;
17494;SDS011;8864;51.970;4.614;2023-12-20T07:07:21;5.63;;;1.13;;
17494;SDS011;8864;51.970;4.614;2023-12-20T07:09:50;8.02;;;1.95;;
17494;SDS011;8864;51.970;4.614;2023-12-20T07:12:17;9.02;;;1.83;;
17494;SDS011;8864;51.970;4.614;2023-12-20T07:14:45;5.05;;;1.50;;
17494;SDS011;8864;51.970;4.614;2023-12-20T07:17:12;8.05;;;1.73;;
17494;SDS011;8864;51.970;4.614;2023-12-20T07:19:40;5.88;;;1.38;;
17494;SDS011;8864;51.970;4.614;2023-12-20T07:22:07;8.52;;;1.30;;
17494;SDS011;8864;51.970;4.614;2023-12-20T07:24:34;4.90;;;1.63;;
17494;SDS011;8864;51.970;4.614;2023-12-20T07:27:01;6.93;;;1.45;;
17494;SDS011;8864;51.970;4.614;2023-12-20T07:29:28;5.80;;;1.17;;
17494;SDS011;8864;51.970;4.614;2023-12-20T07:31:57;4.38;;;1.20;;
17494;SDS011;8864;51.970;4.614;2023-12-20T07:34:23;4.25;;;1.23;;
17494;SDS011;8864;51.970;4.614;2023-12-20T07:36:50;3.63;;;1.08;;
17494;SDS011;8864;51.970;4.614;2023-12-20T07:39:17;3.45;;;1.20;;
17494;SDS011;8864;51.970;4.614;2023-12-20T07:41:44;14.95;;;1.63;;
17494;SDS011;8864;51.970;4.614;2023-12-20T07:44:12;7.97;;;1.80;;
17494;SDS011;8864;51.970;4.614;2023-12-20T07:46:40;9.05;;;1.83;;
17494;SDS011;8864;51.970;4.614;2023-12-20T07:49:09;6.63;;;1.50;;
17494;SDS011;8864;51.970;4.614;2023-12-20T07:51:36;10.77;;;2.13;;
17494;SDS011;8864;51.970;4.614;2023-12-20T07:54:03;5.97;;;1.90;;
17494;SDS011;8864;51.970;4.614;2023-12-20T07:56:30;9.10;;;1.88;;
17494;SDS011;8864;51.970;4.614;2023-12-20T07:58:57;8.73;;;2.00;;
17494;SDS011;8864;51.970;4.614;2023-12-20T08:01:24;8.10;;;1.60;;
17494;SDS011;8864;51.970;4.614;2023-12-20T08:03:51;7.45;;;1.52;;
17494;SDS011;8864;51.970;4.614;2023-12-20T08:06:20;8.90;;;1.70;;
17494;SDS011;8864;51.970;4.614;2023-12-20T08:08:48;8.05;;;2.10;;
17494;SDS011;8864;51.970;4.614;2023-12-20T08:11:16;13.32;;;2.25;;
17494;SDS011;8864;51.970;4.614;2023-12-20T08:13:43;6.38;;;1.58;;
17494;SDS011;8864;51.970;4.614;2023-12-20T08:16:10;8.85;;;1.85;;
17494;SDS011;8864;51.970;4.614;2023-12-20T08:18:38;10.40;;;1.67;;
17494;SDS011;8864;51.970;4.614;2023-12-20T08:21:05;66.68;;;8.85;;
17494;SDS011;8864;51.970;4.614;2023-12-20T08:23:35;25.33;;;3.45;;
17494;SDS011;8864;51.970;4.614;2023-12-20T08:26:03;88.25;;;13.10;;
17494;SDS011;8864;51.970;4.614;2023-12-20T08:28:32;70.57;;;10.02;;
17494;SDS011;8864;51.970;4.614;2023-12-20T08:30:58;67.95;;;9.35;;
17494;SDS011;8864;51.970;4.614;2023-12-20T08:33:25;46.08;;;7.25;;
17494;SDS011;8864;51.970;4.614;2023-12-20T08:35:52;48.20;;;7.82;;
17494;SDS011;8864;51.970;4.614;2023-12-20T08:38:19;50.10;;;7.88;;
17494;SDS011;8864;51.970;4.614;2023-12-20T08:40:47;39.00;;;7.10;;
17494;SDS011;8864;51.970;4.614;2023-12-20T08:43:14;31.55;;;6.32;;
17494;SDS011;8864;51.970;4.614;2023-12-20T08:45:41;38.55;;;6.80;;
17494;SDS011;8864;51.970;4.614;2023-12-20T08:48:08;38.70;;;6.93;;
17494;SDS011;8864;51.970;4.614;2023-12-20T08:50:35;35.95;;;5.72;;
17494;SDS011;8864;51.970;4.614;2023-12-20T08:53:02;27.05;;;4.88;;
17494;SDS011;8864;51.970;4.614;2023-12-20T08:55:29;18.90;;;4.78;;
17494;SDS011;8864;51.970;4.614;2023-12-20T08:57:58;28.08;;;5.55;;
17494;SDS011;8864;51.970;4.614;2023-12-20T09:00:25;19.80;;;5.63;;
17494;SDS011;8864;51.970;4.614;2023-12-20T09:02:52;36.35;;;6.18;;
17494;SDS011;8864;51.970;4.614;2023-12-20T09:05:20;24.13;;;4.63;;
17494;SDS011;8864;51.970;4.614;2023-12-20T09:07:47;21.13;;;4.30;;
17494;SDS011;8864;51.970;4.614;2023-12-20T09:10:14;20.65;;;5.15;;
17494;SDS011;8864;51.970;4.614;2023-12-20T09:12:41;21.00;;;4.22;;
17494;SDS011;8864;51.970;4.614;2023-12-20T09:15:09;20.80;;;3.45;;
17494;SDS011;8864;51.970;4.614;2023-12-20T09:17:36;18.50;;;3.90;;
17494;SDS011;8864;51.970;4.614;2023-12-20T09:20:03;16.73;;;3.85;;
17494;SDS011;8864;51.970;4.614;2023-12-20T09:22:33;20.50;;;4.05;;
17494;SDS011;8864;51.970;4.614;2023-12-20T09:25:00;20.42;;;3.85;;
17494;SDS011;8864;51.970;4.614;2023-12-20T09:27:27;15.80;;;3.67;;
17494;SDS011;8864;51.970;4.614;2023-12-20T09:29:54;16.85;;;3.80;;
17494;SDS011;8864;51.970;4.614;2023-12-20T09:32:23;18.08;;;3.65;;
17494;SDS011;8864;51.970;4.614;2023-12-20T09:34:50;16.40;;;3.30;;
17494;SDS011;8864;51.970;4.614;2023-12-20T09:37:17;13.77;;;3.28;;
17494;SDS011;8864;51.970;4.614;2023-12-20T09:39:43;17.52;;;3.33;;
17494;SDS011;8864;51.970;4.614;2023-12-20T09:42:12;13.50;;;3.22;;
17494;SDS011;8864;51.970;4.614;2023-12-20T09:44:47;10.52;;;2.38;;
17494;SDS011;8864;51.970;4.614;2023-12-20T09:47:14;13.48;;;2.97;;
17494;SDS011;8864;51.970;4.614;2023-12-20T09:49:47;12.63;;;3.15;;
17494;SDS011;8864;51.970;4.614;2023-12-20T09:52:15;10.82;;;2.53;;
17494;SDS011;8864;51.970;4.614;2023-12-20T09:54:44;12.40;;;2.90;;
17494;SDS011;8864;51.970;4.614;2023-12-20T09:57:15;14.77;;;2.80;;
17494;SDS011;8864;51.970;4.614;2023-12-20T09:59:42;11.23;;;2.80;;
17494;SDS011;8864;51.970;4.614;2023-12-20T10:02:11;10.68;;;2.78;;
17494;SDS011;8864;51.970;4.614;2023-12-20T10:04:40;13.88;;;2.85;;
17494;SDS011;8864;51.970;4.614;2023-12-20T10:07:14;8.45;;;2.42;;
17494;SDS011;8864;51.970;4.614;2023-12-20T10:09:42;10.48;;;2.67;;
17494;SDS011;8864;51.970;4.614;2023-12-20T10:12:11;11.55;;;2.40;;
17494;SDS011;8864;51.970;4.614;2023-12-20T10:14:38;10.98;;;2.17;;
17494;SDS011;8864;51.970;4.614;2023-12-20T10:17:05;13.63;;;3.05;;
17494;SDS011;8864;51.970;4.614;2023-12-20T10:19:32;8.10;;;2.20;;
17494;SDS011;8864;51.970;4.614;2023-12-20T10:21:59;9.15;;;2.47;;
17494;SDS011;8864;51.970;4.614;2023-12-20T10:24:29;6.13;;;1.73;;
17494;SDS011;8864;51.970;4.614;2023-12-20T10:27:03;7.32;;;2.03;;
17494;SDS011;8864;51.970;4.614;2023-12-20T10:29:31;9.20;;;2.30;;
17494;SDS011;8864;51.970;4.614;2023-12-20T10:31:59;8.70;;;2.25;;
17494;SDS011;8864;51.970;4.614;2023-12-20T10:34:46;7.15;;;2.20;;
17494;SDS011;8864;51.970;4.614;2023-12-20T10:37:13;12.40;;;2.05;;
17494;SDS011;8864;51.970;4.614;2023-12-20T10:39:41;8.98;;;2.10;;
17494;SDS011;8864;51.970;4.614;2023-12-20T10:42:09;8.95;;;2.17;;
17494;SDS011;8864;51.970;4.614;2023-12-20T10:44:37;7.18;;;1.80;;
17494;SDS011;8864;51.970;4.614;2023-12-20T10:47:04;6.65;;;1.60;;
17494;SDS011;8864;51.970;4.614;2023-12-20T10:49:33;6.50;;;2.03;;
17494;SDS011;8864;51.970;4.614;2023-12-20T10:52:02;6.68;;;1.80;;
17494;SDS011;8864;51.970;4.614;2023-12-20T10:54:32;6.97;;;1.80;;
17494;SDS011;8864;51.970;4.614;2023-12-20T10:57:00;7.25;;;2.20;;
17494;SDS011;8864;51.970;4.614;2023-12-20T10:59:31;7.18;;;1.65;;
17494;SDS011;8864;51.970;4.614;2023-12-20T11:02:00;5.25;;;1.77;;
17494;SDS011;8864;51.970;4.614;2023-12-20T11:07:17;4.55;;;1.58;;
17494;SDS011;8864;51.970;4.614;2023-12-20T11:09:51;10.20;;;1.83;;
17494;SDS011;8864;51.970;4.614;2023-12-20T11:12:28;6.97;;;1.60;;
17494;SDS011;8864;51.970;4.614;2023-12-20T11:15:04;7.38;;;1.77;;
17494;SDS011;8864;51.970;4.614;2023-12-20T11:17:32;7.03;;;1.70;;
17494;SDS011;8864;51.970;4.614;2023-12-20T11:20:06;3.53;;;1.23;;
17494;SDS011;8864;51.970;4.614;2023-12-20T11:22:37;5.13;;;1.55;;
17494;SDS011;8864;51.970;4.614;2023-12-20T11:25:07;5.07;;;1.45;;
17494;SDS011;8864;51.970;4.614;2023-12-20T11:27:36;6.57;;;1.45;;
17494;SDS011;8864;51.970;4.614;2023-12-20T11:30:07;5.00;;;1.52;;
17494;SDS011;8864;51.970;4.614;2023-12-20T11:32:35;7.55;;;1.67;;
17494;SDS011;8864;51.970;4.614;2023-12-20T11:35:16;5.22;;;1.58;;
17494;SDS011;8864;51.970;4.614;2023-12-20T11:37:45;6.00;;;1.58;;
17494;SDS011;8864;51.970;4.614;2023-12-20T11:40:14;5.22;;;1.40;;
17494;SDS011;8864;51.970;4.614;2023-12-20T11:42:44;4.70;;;1.70;;
17494;SDS011;8864;51.970;4.614;2023-12-20T11:45:13;4.68;;;1.20;;
17494;SDS011;8864;51.970;4.614;2023-12-20T11:47:42;3.92;;;1.10;;
17494;SDS011;8864;51.970;4.614;2023-12-20T11:50:09;5.50;;;1.15;;
17494;SDS011;8864;51.970;4.614;2023-12-20T11:52:36;6.60;;;1.40;;
17494;SDS011;8864;51.970;4.614;2023-12-20T11:55:03;5.78;;;1.42;;
17494;SDS011;8864;51.970;4.614;2023-12-20T11:57:32;4.68;;;1.30;;
17494;SDS011;8864;51.970;4.614;2023-12-20T12:00:01;5.82;;;1.35;;
17494;SDS011;8864;51.970;4.614;2023-12-20T12:02:28;4.82;;;1.13;;
17494;SDS011;8864;51.970;4.614;2023-12-20T12:04:56;4.63;;;1.40;;
17494;SDS011;8864;51.970;4.614;2023-12-20T12:07:24;7.13;;;1.63;;
17494;SDS011;8864;51.970;4.614;2023-12-20T12:09:51;5.35;;;1.23;;
17494;SDS011;8864;51.970;4.614;2023-12-20T12:12:18;6.95;;;1.58;;
17494;SDS011;8864;51.970;4.614;2023-12-20T12:14:46;7.43;;;1.73;;
17494;SDS011;8864;51.970;4.614;2023-12-20T12:17:14;7.25;;;1.60;;
17494;SDS011;8864;51.970;4.614;2023-12-20T12:19:41;3.50;;;1.20;;
17494;SDS011;8864;51.970;4.614;2023-12-20T12:22:09;6.03;;;1.40;;
17494;SDS011;8864;51.970;4.614;2023-12-20T12:24:39;4.55;;;1.30;;
17494;SDS011;8864;51.970;4.614;2023-12-20T12:27:06;5.18;;;1.40;;
17494;SDS011;8864;51.970;4.614;2023-12-20T12:29:33;4.20;;;1.50;;
17494;SDS011;8864;51.970;4.614;2023-12-20T12:32:00;3.92;;;0.90;;
17494;SDS011;8864;51.970;4.614;2023-12-20T12:34:32;3.88;;;1.17;;
17494;SDS011;8864;51.970;4.614;2023-12-20T12:36:59;4.55;;;1.10;;
17494;SDS011;8864;51.970;4.614;2023-12-20T12:39:26;4.80;;;0.93;;
17494;SDS011;8864;51.970;4.614;2023-12-20T12:41:55;5.30;;;1.50;;
17494;SDS011;8864;51.970;4.614;2023-12-20T12:44:22;4.13;;;1.00;;
17494;SDS011;8864;51.970;4.614;2023-12-20T12:46:50;6.28;;;1.25;;
17494;SDS011;8864;51.970;4.614;2023-12-20T12:49:18;4.80;;;1.20;;
17494;SDS011;8864;51.970;4.614;2023-12-20T12:51:48;3.30;;;1.23;;
17494;SDS011;8864;51.970;4.614;2023-12-20T12:54:15;3.70;;;1.02;;
17494;SDS011;8864;51.970;4.614;2023-12-20T12:56:43;3.75;;;1.05;;
17494;SDS011;8864;51.970;4.614;2023-12-20T12:59:12;5.07;;;1.30;;
17494;SDS011;8864;51.970;4.614;2023-12-20T13:01:39;6.55;;;1.52;;
17494;SDS011;8864;51.970;4.614;2023-12-20T13:04:05;4.30;;;1.40;;
17494;SDS011;8864;51.970;4.614;2023-12-20T13:06:35;2.92;;;1.08;;
17494;SDS011;8864;51.970;4.614;2023-12-20T13:09:05;4.05;;;1.30;;
17494;SDS011;8864;51.970;4.614;2023-12-20T13:11:33;4.63;;;1.20;;
17494;SDS011;8864;51.970;4.614;2023-12-20T13:14:01;5.07;;;1.10;;
17494;SDS011;8864;51.970;4.614;2023-12-20T13:16:28;4.18;;;1.20;;
17494;SDS011;8864;51.970;4.614;2023-12-20T13:18:55;3.88;;;1.10;;
17494;SDS011;8864;51.970;4.614;2023-12-20T13:21:24;7.72;;;1.10;;
17494;SDS011;8864;51.970;4.614;2023-12-20T13:23:50;4.63;;;1.30;;
17494;SDS011;8864;51.970;4.614;2023-12-20T13:26:20;4.75;;;1.23;;
17494;SDS011;8864;51.970;4.614;2023-12-20T13:28:47;3.35;;;1.20;;
17494;SDS011;8864;51.970;4.614;2023-12-20T13:31:15;4.35;;;1.05;;
17494;SDS011;8864;51.970;4.614;2023-12-20T13:33:42;3.78;;;1.05;;
17494;SDS011;8864;51.970;4.614;2023-12-20T13:36:09;3.25;;;1.10;;
17494;SDS011;8864;51.970;4.614;2023-12-20T13:38:36;3.85;;;1.05;;
17494;SDS011;8864;51.970;4.614;2023-12-20T13:41:03;4.00;;;1.30;;
17494;SDS011;8864;51.970;4.614;2023-12-20T13:43:32;4.32;;;0.90;;
17494;SDS011;8864;51.970;4.614;2023-12-20T13:46:00;2.13;;;0.85;;
17494;SDS011;8864;51.970;4.614;2023-12-20T13:48:27;3.08;;;1.02;;
17494;SDS011;8864;51.970;4.614;2023-12-20T13:50:55;4.72;;;1.13;;
17494;SDS011;8864;51.970;4.614;2023-12-20T13:53:22;4.82;;;1.00;;
17494;SDS011;8864;51.970;4.614;2023-12-20T13:55:48;4.82;;;0.90;;
17494;SDS011;8864;51.970;4.614;2023-12-20T13:58:15;7.10;;;1.63;;
17494;SDS011;8864;51.970;4.614;2023-12-20T14:00:44;4.38;;;1.20;;
17494;SDS011;8864;51.970;4.614;2023-12-20T14:03:11;4.22;;;0.85;;
17494;SDS011;8864;51.970;4.614;2023-12-20T14:05:37;2.03;;;0.68;;
17494;SDS011;8864;51.970;4.614;2023-12-20T14:08:05;3.45;;;1.20;;
17494;SDS011;8864;51.970;4.614;2023-12-20T14:10:32;2.85;;;0.93;;
17494;SDS011;8864;51.970;4.614;2023-12-20T14:12:59;3.47;;;0.85;;
17494;SDS011;8864;51.970;4.614;2023-12-20T14:15:26;2.97;;;0.90;;
17494;SDS011;8864;51.970;4.614;2023-12-20T14:17:55;5.25;;;1.30;;
17494;SDS011;8864;51.970;4.614;2023-12-20T14:20:21;2.50;;;0.90;;
17494;SDS011;8864;51.970;4.614;2023-12-20T14:22:48;5.50;;;1.33;;
17494;SDS011;8864;51.970;4.614;2023-12-20T14:25:15;4.35;;;1.15;;
17494;SDS011;8864;51.970;4.614;2023-12-20T14:27:42;2.80;;;1.08;;
17494;SDS011;8864;51.970;4.614;2023-12-20T14:30:10;4.78;;;1.05;;
17494;SDS011;8864;51.970;4.614;2023-12-20T14:32:39;4.13;;;1.35;;
17494;SDS011;8864;51.970;4.614;2023-12-20T14:35:08;6.60;;;1.10;;
17494;SDS011;8864;51.970;4.614;2023-12-20T14:37:35;7.18;;;1.20;;
17494;SDS011;8864;51.970;4.614;2023-12-20T14:40:04;6.03;;;1.40;;
17494;SDS011;8864;51.970;4.614;2023-12-20T14:42:35;4.32;;;1.42;;
17494;SDS011;8864;51.970;4.614;2023-12-20T14:45:03;4.75;;;0.95;;
17494;SDS011;8864;51.970;4.614;2023-12-20T14:47:30;5.90;;;1.25;;
17494;SDS011;8864;51.970;4.614;2023-12-20T14:49:57;6.35;;;1.05;;
17494;SDS011;8864;51.970;4.614;2023-12-20T14:52:25;2.33;;;0.85;;
17494;SDS011;8864;51.970;4.614;2023-12-20T14:54:52;2.97;;;1.13;;
17494;SDS011;8864;51.970;4.614;2023-12-20T14:57:19;3.13;;;1.00;;
17494;SDS011;8864;51.970;4.614;2023-12-20T14:59:46;7.32;;;1.10;;
17494;SDS011;8864;51.970;4.614;2023-12-20T15:02:13;4.15;;;1.20;;
17494;SDS011;8864;51.970;4.614;2023-12-20T15:04:40;2.42;;;0.95;;
17494;SDS011;8864;51.970;4.614;2023-12-20T15:07:07;3.08;;;1.08;;